Time;durP1;ratioP1;P1;durP2;ratioP2;P2;SDS_P1;SDS_P2;PMS_P1;PMS_P2;Temp;Humidity;BMP_temperature;BMP_pressure;BME280_temperature;BME280_humidity;BME280_pressure;Samples;Min_cycle;Max_cycle;Signal;HPM_P1;HPM_P2
2023/03/28 00:00:08;;;;;;;0.00;0.00;;;3.60;82.60;;;;;;5024229;28;20038;-70
2023/03/28 00:02:33;;;;;;;0.00;0.00;;;3.60;82.90;;;;;;5013028;28;20129;-70
2023/03/28 00:04:59;;;;;;;0.00;0.00;;;3.60;82.80;;;;;;5011349;28;20161;-70
2023/03/28 00:07:26;;;;;;;0.00;0.00;;;3.60;82.70;;;;;;5028671;28;20037;-70
2023/03/28 00:09:51;;;;;;;0.00;0.00;;;3.60;82.70;;;;;;5028984;28;20060;-70
2023/03/28 00:12:17;;;;;;;0.00;0.00;;;3.60;82.60;;;;;;5028788;28;20379;-69
2023/03/28 00:14:45;;;;;;;0.00;0.00;;;3.60;82.50;;;;;;5010588;28;20380;-70
2023/03/28 00:17:11;;;;;;;0.00;0.00;;;3.70;82.60;;;;;;5029127;28;20798;-70
2023/03/28 00:19:39;;;;;;;0.08;0.08;;;3.70;82.50;;;;;;5028937;28;20045;-70
2023/03/28 00:22:05;;;;;;;0.00;0.00;;;3.60;82.40;;;;;;5028825;28;20054;-70
2023/03/28 00:24:37;;;;;;;0.00;0.00;;;3.60;82.50;;;;;;5028723;28;20045;-69
2023/03/28 00:27:04;;;;;;;0.00;0.00;;;3.60;82.40;;;;;;5028525;28;20072;-70
2023/03/28 00:29:30;;;;;;;0.10;0.10;;;3.60;82.20;;;;;;5018876;28;20494;-70
2023/03/28 00:31:56;;;;;;;0.10;0.10;;;3.60;82.50;;;;;;5028884;28;20056;-69
2023/03/28 00:34:22;;;;;;;0.00;0.00;;;3.60;82.60;;;;;;5028127;28;20037;-69
2023/03/28 00:36:49;;;;;;;0.10;0.10;;;3.50;82.50;;;;;;5029175;28;20053;-69
2023/03/28 00:39:15;;;;;;;0.10;0.10;;;3.50;82.50;;;;;;5028703;28;20049;-69
2023/03/28 00:41:43;;;;;;;0.00;0.00;;;3.50;82.50;;;;;;5028391;28;20750;-70
2023/03/28 00:44:47;;;;;;;0.10;0.10;;;3.40;82.40;;;;;;5028499;28;20046;-70
2023/03/28 00:47:36;;;;;;;0.03;0.03;;;3.40;82.30;;;;;;4974612;28;20050;-70
2023/03/28 00:50:10;;;;;;;0.00;0.00;;;3.40;82.40;;;;;;5020013;28;20056;-70
2023/03/28 00:53:00;;;;;;;0.08;0.08;;;3.40;82.90;;;;;;5019411;28;20039;-70
2023/03/28 00:55:39;;;;;;;0.00;0.00;;;3.50;83.00;;;;;;5019078;28;20116;-70
2023/03/28 00:58:08;;;;;;;0.00;0.00;;;3.50;83.00;;;;;;4999594;28;20038;-70
2023/03/28 01:00:36;;;;;;;0.00;0.00;;;3.50;83.00;;;;;;5020834;28;20061;-70
2023/03/28 01:03:05;;;;;;;0.00;0.00;;;3.50;83.10;;;;;;5016583;28;20046;-70
2023/03/28 01:05:32;;;;;;;0.00;0.00;;;3.60;83.00;;;;;;5014769;28;20449;-71
2023/03/28 01:08:25;;;;;;;1.25;1.13;;;3.60;82.90;;;;;;5016127;28;20057;-71
2023/03/28 01:10:51;;;;;;;0.00;0.00;;;3.70;82.90;;;;;;5015621;28;20080;-70
2023/03/28 01:13:19;;;;;;;0.32;0.32;;;3.70;82.70;;;;;;4999274;28;20542;-70
2023/03/28 01:15:48;;;;;;;0.00;0.00;;;3.70;82.60;;;;;;5020163;28;20053;-70
2023/03/28 01:18:15;;;;;;;0.10;0.10;;;3.70;82.50;;;;;;5019841;28;20498;-70
2023/03/28 01:21:09;;;;;;;0.00;0.00;;;3.70;82.50;;;;;;5024482;28;20043;-70
2023/03/28 01:24:09;;;;;;;0.00;0.00;;;3.70;82.50;;;;;;5022976;28;20497;-70
2023/03/28 01:26:46;;;;;;;0.00;0.00;;;3.60;82.70;;;;;;4983005;28;20084;-71
2023/03/28 01:29:43;;;;;;;0.10;0.10;;;3.60;82.70;;;;;;5029169;28;20128;-71
2023/03/28 01:32:33;;;;;;;0.10;0.10;;;3.60;82.90;;;;;;5012007;28;20052;-71
2023/03/28 01:35:37;;;;;;;0.00;0.00;;;3.60;83.20;;;;;;5015240;28;20095;-71
2023/03/28 01:38:09;;;;;;;0.00;0.00;;;3.50;83.30;;;;;;4968867;28;20471;-70
2023/03/28 01:41:00;;;;;;;0.00;0.00;;;3.50;83.30;;;;;;5029452;28;20041;-70
2023/03/28 01:43:35;;;;;;;0.00;0.00;;;3.50;83.50;;;;;;5014886;28;20113;-71
2023/03/28 01:46:13;;;;;;;0.00;0.00;;;3.40;83.60;;;;;;5025075;28;20056;-70
2023/03/28 01:48:56;;;;;;;0.00;0.00;;;3.50;83.80;;;;;;5031658;28;20263;-70
2023/03/28 01:51:33;;;;;;;0.00;0.00;;;3.50;83.70;;;;;;5013282;28;20049;-70
2023/03/28 01:54:23;;;;;;;0.10;0.10;;;3.50;83.70;;;;;;5027437;28;20048;-71
2023/03/28 01:57:10;;;;;;;0.00;0.00;;;3.50;83.60;;;;;;5012578;28;20053;-70
2023/03/28 01:59:43;;;;;;;0.00;0.00;;;3.60;83.40;;;;;;5031290;28;20133;-70
2023/03/28 02:02:29;;;;;;;0.00;0.00;;;3.60;83.30;;;;;;5018988;28;20048;-70
2023/03/28 02:04:57;;;;;;;0.00;0.00;;;3.60;83.20;;;;;;5016837;28;20046;-71
2023/03/28 02:07:24;;;;;;;0.00;0.00;;;3.50;83.10;;;;;;5030962;28;20111;-70
2023/03/28 02:09:53;;;;;;;0.10;0.10;;;3.50;83.10;;;;;;5031067;28;20132;-71
2023/03/28 02:12:29;;;;;;;0.00;0.00;;;3.50;83.00;;;;;;5031347;28;20037;-70
2023/03/28 02:14:57;;;;;;;65.10;1.98;;;3.50;82.70;;;;;;5012473;28;20038;-70
2023/03/28 02:17:26;;;;;;;0.00;0.00;;;3.40;83.00;;;;;;5030811;28;20081;-70
2023/03/28 02:19:57;;;;;;;0.00;0.00;;;3.30;83.20;;;;;;5031018;28;20076;-70
2023/03/28 02:22:39;;;;;;;0.10;0.10;;;3.30;83.30;;;;;;5028968;28;20107;-71
2023/03/28 02:25:05;;;;;;;0.10;0.10;;;3.20;83.30;;;;;;5025986;28;20863;-71
2023/03/28 02:27:33;;;;;;;0.10;0.10;;;3.20;83.20;;;;;;5031113;28;20132;-70
2023/03/28 02:29:59;;;;;;;0.00;0.00;;;3.20;83.10;;;;;;5012291;28;20037;-70
2023/03/28 02:32:25;;;;;;;0.00;0.00;;;3.10;83.30;;;;;;5030453;28;20160;-70
2023/03/28 02:34:53;;;;;;;0.00;0.00;;;3.10;83.20;;;;;;5030731;28;20112;-70
2023/03/28 02:37:56;;;;;;;0.00;0.00;;;3.10;83.20;;;;;;5030199;28;20077;-71
2023/03/28 02:40:35;;;;;;;0.10;0.10;;;3.10;83.30;;;;;;4977250;28;20064;-71
2023/03/28 02:43:28;;;;;;;0.00;0.00;;;3.10;83.20;;;;;;5010902;28;20061;-70
2023/03/28 02:46:02;;;;;;;0.10;0.10;;;3.00;83.20;;;;;;5014484;28;20084;-70
2023/03/28 02:48:38;;;;;;;0.00;0.00;;;3.00;83.20;;;;;;5012654;28;20411;-70
2023/03/28 02:51:22;;;;;;;0.00;0.00;;;2.90;83.20;;;;;;5029583;28;20053;-70
2023/03/28 02:54:16;;;;;;;0.00;0.00;;;2.90;83.20;;;;;;5025695;28;20053;-70
2023/03/28 02:56:51;;;;;;;0.00;0.00;;;2.90;83.00;;;;;;5023534;28;20130;-71
2023/03/28 02:59:45;;;;;;;0.00;0.00;;;2.80;83.00;;;;;;5030088;28;20126;-71
2023/03/28 03:02:19;;;;;;;0.00;0.00;;;2.80;83.10;;;;;;5029400;28;20045;-71
2023/03/28 03:04:45;;;;;;;0.00;0.00;;;2.70;83.20;;;;;;5012815;28;20121;-71
2023/03/28 03:07:12;;;;;;;0.00;0.00;;;2.80;83.30;;;;;;5011958;28;20565;-71
2023/03/28 03:09:39;;;;;;;0.00;0.00;;;2.80;83.20;;;;;;5029765;28;20053;-71
2023/03/28 03:12:05;;;;;;;0.03;0.03;;;2.90;83.30;;;;;;5029393;28;20056;-71
2023/03/28 03:14:31;;;;;;;0.00;0.00;;;2.90;83.30;;;;;;5029058;28;20050;-71
2023/03/28 03:16:57;;;;;;;0.00;0.00;;;2.90;83.30;;;;;;5025639;28;20109;-70
2023/03/28 03:19:22;;;;;;;0.10;0.10;;;3.00;83.30;;;;;;5029287;28;20053;-71
2023/03/28 03:21:48;;;;;;;0.00;0.00;;;3.00;83.30;;;;;;5011968;28;20117;-70
2023/03/28 03:24:15;;;;;;;0.10;0.10;;;3.00;83.20;;;;;;5018033;28;20104;-70
2023/03/28 03:26:40;;;;;;;0.00;0.00;;;3.00;83.30;;;;;;5019591;28;20030;-71
2023/03/28 03:29:06;;;;;;;0.00;0.00;;;3.00;83.20;;;;;;5029491;28;20082;-70
2023/03/28 03:31:32;;;;;;;0.00;0.00;;;3.00;83.30;;;;;;5028959;28;20394;-71
2023/03/28 03:33:58;;;;;;;0.00;0.00;;;3.00;83.20;;;;;;5029018;28;20041;-70
2023/03/28 03:36:25;;;;;;;0.00;0.00;;;3.10;83.10;;;;;;5028797;28;20120;-70
2023/03/28 03:38:51;;;;;;;0.00;0.00;;;3.10;83.00;;;;;;4995383;28;20057;-70
2023/03/28 03:41:17;;;;;;;0.00;0.00;;;3.10;82.90;;;;;;5029030;28;20053;-70
2023/03/28 03:43:43;;;;;;;0.00;0.00;;;3.10;83.00;;;;;;5011336;28;20414;-70
2023/03/28 03:46:08;;;;;;;0.10;0.10;;;3.10;82.90;;;;;;5029226;28;20145;-70
2023/03/28 03:48:34;;;;;;;0.10;0.10;;;3.00;82.90;;;;;;5029383;28;20048;-71
2023/03/28 03:50:59;;;;;;;0.00;0.00;;;3.00;82.90;;;;;;5026040;28;20100;-71
2023/03/28 03:53:25;;;;;;;0.00;0.00;;;3.00;82.90;;;;;;5028565;28;20528;-70
2023/03/28 03:55:51;;;;;;;0.00;0.00;;;3.00;82.90;;;;;;5029413;28;20046;-70
2023/03/28 03:58:17;;;;;;;0.00;0.00;;;3.00;82.90;;;;;;5028821;28;20033;-70
2023/03/28 04:00:45;;;;;;;0.00;0.00;;;3.00;83.10;;;;;;5028923;28;20053;-70
2023/03/28 04:03:11;;;;;;;0.00;0.00;;;3.00;83.30;;;;;;5011437;28;20394;-71
2023/03/28 04:05:37;;;;;;;0.00;0.00;;;3.00;83.30;;;;;;5029157;28;20041;-68
2023/03/28 04:08:03;;;;;;;0.00;0.00;;;3.00;83.30;;;;;;5028645;28;20064;-71
2023/03/28 04:10:28;;;;;;;0.00;0.00;;;3.00;83.30;;;;;;5028755;28;20033;-70
2023/03/28 04:12:55;;;;;;;0.00;0.00;;;3.00;83.20;;;;;;5023698;28;20398;-71
2023/03/28 04:15:20;;;;;;;0.00;0.00;;;3.00;83.20;;;;;;5028594;28;20048;-71
2023/03/28 04:17:48;;;;;;;0.00;0.00;;;3.10;83.20;;;;;;5028245;28;20037;-70
2023/03/28 04:20:14;;;;;;;0.00;0.00;;;3.10;83.20;;;;;;5028719;28;20120;-70
2023/03/28 04:22:40;;;;;;;0.00;0.00;;;3.10;83.20;;;;;;5028263;28;20132;-70
2023/03/28 04:25:07;;;;;;;0.10;0.10;;;3.10;83.10;;;;;;5028685;28;20645;-71
2023/03/28 04:27:32;;;;;;;0.00;0.00;;;3.10;83.10;;;;;;5028586;28;20083;-71
2023/03/28 04:30:00;;;;;;;0.00;0.00;;;3.10;83.10;;;;;;5010920;28;20034;-71
2023/03/28 04:32:26;;;;;;;0.00;0.00;;;3.20;83.00;;;;;;5028412;28;20124;-70
2023/03/28 04:34:52;;;;;;;0.00;0.00;;;3.10;82.90;;;;;;5028934;28;20044;-70
2023/03/28 04:37:18;;;;;;;0.00;0.00;;;3.10;82.80;;;;;;5028273;28;20033;-71
2023/03/28 04:39:46;;;;;;;0.00;0.00;;;3.10;82.70;;;;;;5028220;28;20056;-70
2023/03/28 04:42:15;;;;;;;0.00;0.00;;;3.10;82.80;;;;;;5009997;28;20140;-70
2023/03/28 04:44:41;;;;;;;0.00;0.00;;;3.00;82.90;;;;;;5028986;28;20063;-71
2023/03/28 04:47:10;;;;;;;0.00;0.00;;;2.90;83.00;;;;;;5028257;28;20561;-70
2023/03/28 04:49:36;;;;;;;0.00;0.00;;;2.90;82.90;;;;;;5028769;28;20042;-71
2023/03/28 04:52:02;;;;;;;0.00;0.00;;;2.80;83.10;;;;;;5023500;28;20083;-70
2023/03/28 04:54:27;;;;;;;0.05;0.05;;;2.80;83.10;;;;;;5026613;28;20080;-71
2023/03/28 04:56:53;;;;;;;0.00;0.00;;;2.80;83.20;;;;;;5021329;28;20044;-70
2023/03/28 04:59:19;;;;;;;0.00;0.00;;;2.80;83.10;;;;;;5012470;28;20095;-70
2023/03/28 05:01:48;;;;;;;0.00;0.00;;;2.90;83.10;;;;;;5012236;28;20502;-70
2023/03/28 05:04:18;;;;;;;0.00;0.00;;;2.90;83.00;;;;;;5029977;28;20045;-70
2023/03/28 05:06:45;;;;;;;0.00;0.00;;;2.90;83.10;;;;;;5012549;28;20056;-71
2023/03/28 05:09:11;;;;;;;0.00;0.00;;;3.00;83.10;;;;;;5026580;28;20148;-70
2023/03/28 05:11:37;;;;;;;0.00;0.00;;;3.00;83.20;;;;;;5028957;28;20171;-70
2023/03/28 05:14:03;;;;;;;0.00;0.00;;;3.10;83.10;;;;;;5029026;28;20042;-70
2023/03/28 05:16:29;;;;;;;0.03;0.03;;;3.10;83.20;;;;;;5024109;28;20700;-70
2023/03/28 05:18:55;;;;;;;0.00;0.00;;;3.00;83.30;;;;;;5024049;28;20037;-70
2023/03/28 05:21:21;;;;;;;0.10;0.10;;;3.00;83.30;;;;;;5027125;28;20076;-70
2023/03/28 05:23:47;;;;;;;0.00;0.00;;;3.10;83.30;;;;;;5026480;28;20038;-70
2023/03/28 05:26:12;;;;;;;0.00;0.00;;;3.10;83.30;;;;;;5024136;28;20041;-70
2023/03/28 05:28:38;;;;;;;0.00;0.00;;;3.20;83.20;;;;;;5018711;28;20407;-70
2023/03/28 05:31:06;;;;;;;0.00;0.00;;;3.30;83.10;;;;;;5022814;28;20046;-70
2023/03/28 05:33:32;;;;;;;0.00;0.00;;;3.30;83.00;;;;;;5023416;28;20037;-70
2023/03/28 05:35:59;;;;;;;0.00;0.00;;;3.40;82.90;;;;;;5010757;28;20053;-70
2023/03/28 05:38:25;;;;;;;0.00;0.00;;;3.40;82.70;;;;;;5017802;28;20045;-70
2023/03/28 05:40:51;;;;;;;0.00;0.00;;;3.50;82.70;;;;;;5018927;28;20042;-70
2023/03/28 05:43:17;;;;;;;0.00;0.00;;;3.60;82.60;;;;;;5021091;28;20138;-70
2023/03/28 05:45:43;;;;;;;0.00;0.00;;;3.60;82.50;;;;;;5022740;28;20079;-70
2023/03/28 05:48:08;;;;;;;0.00;0.00;;;3.60;82.40;;;;;;5027801;28;20037;-68
2023/03/28 05:50:34;;;;;;;0.00;0.00;;;3.70;82.50;;;;;;5010865;28;20054;-68
2023/03/28 05:53:00;;;;;;;0.00;0.00;;;3.70;82.50;;;;;;5023998;28;20056;-68
2023/03/28 05:55:25;;;;;;;0.00;0.00;;;3.80;82.30;;;;;;5025268;28;20038;-70
2023/03/28 05:57:51;;;;;;;0.00;0.00;;;3.70;82.20;;;;;;5012514;28;20099;-70
2023/03/28 06:00:18;;;;;;;0.00;0.00;;;3.90;82.10;;;;;;5013143;28;20506;-70
2023/03/28 06:02:43;;;;;;;0.00;0.00;;;3.90;82.00;;;;;;5016135;28;20045;-73
2023/03/28 06:05:10;;;;;;;0.00;0.00;;;3.90;81.90;;;;;;5024934;28;20391;-71
2023/03/28 06:07:37;;;;;;;0.00;0.00;;;3.90;81.80;;;;;;5015554;28;20038;-70
2023/03/28 06:10:04;;;;;;;0.00;0.00;;;3.90;81.70;;;;;;5011626;28;20052;-70
2023/03/28 06:12:30;;;;;;;0.03;0.03;;;3.80;81.70;;;;;;5016539;28;20037;-69
2023/03/28 06:14:56;;;;;;;0.00;0.00;;;3.90;81.60;;;;;;5004567;28;20500;-69
2023/03/28 06:17:22;;;;;;;0.00;0.00;;;3.90;81.60;;;;;;5025093;28;20041;-69
2023/03/28 06:19:47;;;;;;;0.00;0.00;;;3.90;81.50;;;;;;5030568;28;20099;-71
2023/03/28 06:22:13;;;;;;;0.00;0.00;;;3.90;81.30;;;;;;5024954;28;20042;-72
2023/03/28 06:24:39;;;;;;;0.00;0.00;;;3.90;81.30;;;;;;5027431;28;20037;-71
2023/03/28 06:27:05;;;;;;;0.00;0.00;;;3.90;81.20;;;;;;5011679;28;20570;-71
2023/03/28 06:29:30;;;;;;;0.00;0.00;;;4.00;81.20;;;;;;5031672;28;20050;-71
2023/03/28 06:31:56;;;;;;;0.00;0.00;;;4.00;81.10;;;;;;5031641;28;20561;-71
2023/03/28 06:34:22;;;;;;;0.00;0.00;;;4.10;81.20;;;;;;5029173;28;20037;-71
2023/03/28 06:36:47;;;;;;;0.00;0.00;;;4.10;81.30;;;;;;5011157;28;20049;-72
2023/03/28 06:39:13;;;;;;;0.00;0.00;;;4.20;81.40;;;;;;4996600;28;20049;-71
2023/03/28 06:41:39;;;;;;;0.00;0.00;;;4.30;81.40;;;;;;5017356;28;20048;-71
2023/03/28 06:44:05;;;;;;;0.08;0.08;;;4.40;81.40;;;;;;5017893;28;20037;-72
2023/03/28 06:46:31;;;;;;;0.00;0.00;;;4.40;81.40;;;;;;5008400;28;20072;-71
2023/03/28 06:48:57;;;;;;;0.00;0.00;;;4.50;81.50;;;;;;5014534;28;20103;-71
2023/03/28 06:51:23;;;;;;;0.00;0.00;;;4.50;81.50;;;;;;5018829;28;20050;-71
2023/03/28 06:53:49;;;;;;;0.00;0.00;;;4.60;81.40;;;;;;5016813;28;20559;-72
2023/03/28 06:56:14;;;;;;;0.00;0.00;;;4.60;81.40;;;;;;5018955;28;20045;-71
2023/03/28 06:58:40;;;;;;;0.10;0.10;;;4.70;81.10;;;;;;5012912;28;20124;-71
2023/03/28 07:01:06;;;;;;;0.00;0.00;;;4.70;81.00;;;;;;5017530;28;20048;-71
2023/03/28 07:03:32;;;;;;;0.00;0.00;;;4.70;80.70;;;;;;5017551;28;20099;-71
2023/03/28 07:05:57;;;;;;;0.00;0.00;;;4.80;80.70;;;;;;5018675;28;20042;-72
2023/03/28 07:08:23;;;;;;;0.00;0.00;;;4.80;80.40;;;;;;5016871;28;20092;-71
2023/03/28 07:10:49;;;;;;;0.00;0.00;;;4.90;80.60;;;;;;5016330;28;20128;-71
2023/03/28 07:13:15;;;;;;;0.00;0.00;;;5.10;80.40;;;;;;4992574;28;20064;-71
2023/03/28 07:15:41;;;;;;;3.00;1.40;;;5.20;79.70;;;;;;4983715;28;20125;-69
2023/03/28 07:18:09;;;;;;;0.00;0.00;;;5.30;78.40;;;;;;5017656;28;20438;-68
2023/03/28 07:20:40;;;;;;;0.00;0.00;;;5.30;77.30;;;;;;5000427;28;20049;-68
2023/03/28 07:23:06;;;;;;;0.30;0.30;;;5.40;74.80;;;;;;5016294;28;20049;-68
2023/03/28 07:25:32;;;;;;;2.00;1.27;;;5.60;74.60;;;;;;5018594;28;20305;-68
2023/03/28 07:27:57;;;;;;;0.00;0.00;;;5.50;72.60;;;;;;5018588;28;20124;-68
2023/03/28 07:30:24;;;;;;;0.10;0.10;;;5.60;73.20;;;;;;5017516;28;20041;-68
2023/03/28 07:32:50;;;;;;;0.03;0.03;;;5.60;72.30;;;;;;4999898;28;20503;-68
2023/03/28 07:35:15;;;;;;;0.00;0.00;;;5.60;72.90;;;;;;5017416;28;20124;-68
2023/03/28 07:37:41;;;;;;;0.00;0.00;;;5.60;73.00;;;;;;5018405;28;20140;-68
2023/03/28 07:40:09;;;;;;;0.00;0.00;;;5.70;72.90;;;;;;5018397;28;20034;-68
2023/03/28 07:42:35;;;;;;;0.00;0.00;;;5.70;72.80;;;;;;4999123;28;20053;-69
2023/03/28 07:45:04;;;;;;;0.00;0.00;;;5.80;72.60;;;;;;4999580;28;20045;-68
2023/03/28 07:47:29;;;;;;;0.10;0.10;;;5.80;71.00;;;;;;5017853;28;20068;-68
2023/03/28 07:49:56;;;;;;;0.03;0.03;;;5.80;70.10;;;;;;5016372;28;20470;-68
2023/03/28 07:52:22;;;;;;;0.00;0.00;;;5.70;69.10;;;;;;5016142;28;20518;-68
2023/03/28 07:54:48;;;;;;;0.00;0.00;;;5.80;69.60;;;;;;4999632;28;20053;-68
2023/03/28 07:57:14;;;;;;;0.00;0.00;;;5.70;69.80;;;;;;5017639;28;20045;-67
2023/03/28 07:59:40;;;;;;;0.00;0.00;;;5.80;70.10;;;;;;5016913;28;20038;-68
2023/03/28 08:02:05;;;;;;;0.00;0.00;;;5.80;69.50;;;;;;5015651;28;20042;-67
2023/03/28 08:04:31;;;;;;;0.00;0.00;;;5.80;67.50;;;;;;5009010;28;20053;-67
2023/03/28 08:06:57;;;;;;;0.00;0.00;;;5.80;67.70;;;;;;5015769;28;20037;-67
2023/03/28 08:09:23;;;;;;;0.00;0.00;;;5.80;68.30;;;;;;5017146;28;20123;-67
2023/03/28 08:11:48;;;;;;;0.00;0.00;;;5.90;68.30;;;;;;5015768;28;20133;-67
2023/03/28 08:14:16;;;;;;;0.00;0.00;;;5.90;67.10;;;;;;5016571;28;20564;-67
2023/03/28 08:16:42;;;;;;;0.00;0.00;;;6.00;67.20;;;;;;5015893;28;21266;-67
2023/03/28 08:19:08;;;;;;;0.00;0.00;;;6.10;67.90;;;;;;5016407;28;20046;-66
2023/03/28 08:21:34;;;;;;;0.00;0.00;;;6.10;67.70;;;;;;5016893;28;20041;-66
2023/03/28 08:24:01;;;;;;;0.00;0.00;;;6.10;66.80;;;;;;5017652;28;20045;-66
2023/03/28 08:26:28;;;;;;;0.00;0.00;;;6.10;66.00;;;;;;5021258;28;20112;-67
2023/03/28 08:28:57;;;;;;;0.00;0.00;;;6.20;64.50;;;;;;5021504;28;20446;-67
2023/03/28 08:31:25;;;;;;;0.00;0.00;;;6.20;64.30;;;;;;5020869;28;20042;-67
2023/03/28 08:33:52;;;;;;;0.10;0.10;;;6.30;64.60;;;;;;5020913;28;20106;-67
2023/03/28 08:36:20;;;;;;;0.00;0.00;;;6.40;65.30;;;;;;5020914;28;20037;-67
2023/03/28 08:38:48;;;;;;;0.00;0.00;;;6.40;64.70;;;;;;5020843;28;20120;-67
2023/03/28 08:41:33;;;;;;;0.00;0.00;;;6.50;64.10;;;;;;5020964;28;20053;-67
2023/03/28 08:44:15;;;;;;;0.00;0.00;;;6.60;63.80;;;;;;5020487;28;20061;-67
2023/03/28 08:46:42;;;;;;;0.00;0.00;;;6.60;64.00;;;;;;5019493;28;20042;-67
2023/03/28 08:49:13;;;;;;;0.00;0.00;;;6.70;64.30;;;;;;5018812;28;21507;-67
2023/03/28 08:51:45;;;;;;;0.00;0.00;;;6.70;62.50;;;;;;5019820;28;20485;-67
2023/03/28 08:54:30;;;;;;;0.00;0.00;;;6.80;63.60;;;;;;5002613;28;20563;-66
2023/03/28 08:56:59;;;;;;;0.10;0.10;;;6.80;64.70;;;;;;5020014;28;20042;-66
2023/03/28 08:59:33;;;;;;;0.00;0.00;;;6.80;63.60;;;;;;5015448;28;20042;-66
2023/03/28 09:01:58;;;;;;;1.65;1.55;;;6.80;63.50;;;;;;5018363;28;20049;-67
2023/03/28 09:04:30;;;;;;;0.00;0.00;;;6.80;61.70;;;;;;5020344;28;20049;-66
2023/03/28 09:07:26;;;;;;;0.00;0.00;;;6.80;61.00;;;;;;5020284;28;20038;-67
2023/03/28 09:10:37;;;;;;;0.00;0.00;;;6.80;61.20;;;;;;5010524;28;20530;-66
2023/03/28 09:13:03;;;;;;;0.00;0.00;;;6.90;61.80;;;;;;5012630;28;20066;-67
2023/03/28 09:15:37;;;;;;;0.00;0.00;;;7.00;62.10;;;;;;5019263;28;20038;-67
2023/03/28 09:18:22;;;;;;;0.05;0.05;;;6.90;60.80;;;;;;5020486;28;20670;-67
2023/03/28 09:21:11;;;;;;;0.00;0.00;;;7.00;61.10;;;;;;5021230;28;20046;-66
2023/03/28 09:24:12;;;;;;;0.00;0.00;;;7.00;63.00;;;;;;5019090;28;20045;-66
2023/03/28 09:26:43;;;;;;;1.20;1.10;;;7.10;61.90;;;;;;5019075;28;20095;-67
2023/03/28 09:29:23;;;;;;;0.00;0.00;;;7.10;61.70;;;;;;5019735;28;20041;-67
2023/03/28 09:31:55;;;;;;;0.43;0.43;;;7.10;61.80;;;;;;5019898;28;20053;-66
2023/03/28 09:34:26;;;;;;;0.10;0.10;;;7.20;62.90;;;;;;5019658;28;20050;-67
2023/03/28 09:36:55;;;;;;;0.10;0.10;;;7.30;64.20;;;;;;5020745;28;20077;-66
2023/03/28 09:39:42;;;;;;;0.00;0.00;;;7.40;64.30;;;;;;5020364;28;20052;-65
2023/03/28 09:42:26;;;;;;;0.00;0.00;;;7.40;63.60;;;;;;5019247;28;20048;-65
2023/03/28 09:45:15;;;;;;;0.00;0.00;;;7.40;61.40;;;;;;5018784;28;20136;-65
2023/03/28 09:47:45;;;;;;;0.00;0.00;;;7.40;62.80;;;;;;4986186;28;20045;-64
2023/03/28 09:50:15;;;;;;;0.00;0.00;;;7.50;64.60;;;;;;5017856;28;20111;-64
2023/03/28 09:52:41;;;;;;;0.00;0.00;;;7.60;65.40;;;;;;4998311;28;20057;-64
2023/03/28 09:55:22;;;;;;;0.00;0.00;;;7.60;66.10;;;;;;5016266;28;20034;-64
2023/03/28 09:58:10;;;;;;;0.00;0.00;;;7.50;66.60;;;;;;5025809;28;20037;-65
2023/03/28 10:00:47;;;;;;;0.10;0.10;;;7.50;66.20;;;;;;5018145;28;20052;-67
2023/03/28 10:03:21;;;;;;;0.00;0.00;;;7.50;67.20;;;;;;5026065;28;20115;-66
2023/03/28 10:05:49;;;;;;;0.00;0.00;;;7.50;67.80;;;;;;5030589;28;20056;-63
2023/03/28 10:08:33;;;;;;;0.00;0.00;;;7.60;68.40;;;;;;5012762;28;20526;-63
2023/03/28 10:11:17;;;;;;;0.00;0.00;;;7.80;68.90;;;;;;5027967;28;20042;-64
2023/03/28 10:13:49;;;;;;;0.10;0.10;;;7.80;66.40;;;;;;5030858;28;20045;-64
2023/03/28 10:16:41;;;;;;;0.00;0.00;;;7.70;66.10;;;;;;5030844;28;20045;-64
2023/03/28 10:19:12;;;;;;;0.00;0.00;;;7.90;67.00;;;;;;5026764;28;20118;-65
2023/03/28 10:21:38;;;;;;;0.00;0.00;;;7.90;66.80;;;;;;5030186;28;20046;-64
2023/03/28 10:24:06;;;;;;;0.20;0.20;;;8.00;64.70;;;;;;5029697;28;20037;-64
2023/03/28 10:26:32;;;;;;;0.10;0.10;;;8.00;65.00;;;;;;5022466;28;20053;-65
2023/03/28 10:29:01;;;;;;;0.00;0.00;;;8.10;64.70;;;;;;5024722;28;20038;-65
2023/03/28 10:31:30;;;;;;;1.45;0.65;;;8.20;65.60;;;;;;5014696;28;20037;-65
2023/03/28 10:33:58;;;;;;;0.00;0.00;;;8.20;63.80;;;;;;5023520;28;20046;-64
2023/03/28 10:36:42;;;;;;;0.00;0.00;;;8.20;64.90;;;;;;5027637;28;20045;-64
2023/03/28 10:39:20;;;;;;;0.05;0.05;;;8.20;64.90;;;;;;5010764;28;20409;-65
2023/03/28 10:41:53;;;;;;;0.00;0.00;;;8.20;64.80;;;;;;5010902;28;20100;-64
2023/03/28 10:44:35;;;;;;;0.30;0.30;;;8.10;64.50;;;;;;5011852;28;20073;-64
2023/03/28 10:47:15;;;;;;;0.00;0.00;;;8.10;63.00;;;;;;5024745;28;20084;-65
2023/03/28 10:49:49;;;;;;;0.00;0.00;;;8.10;62.30;;;;;;5030193;28;20111;-65
2023/03/28 10:52:39;;;;;;;0.00;0.00;;;8.00;63.80;;;;;;5030281;28;20050;-65
2023/03/28 10:55:14;;;;;;;0.00;0.00;;;8.00;63.90;;;;;;5030021;28;20108;-65
2023/03/28 10:58:06;;;;;;;0.05;0.05;;;8.10;64.60;;;;;;5012380;28;20513;-65
2023/03/28 11:00:49;;;;;;;0.00;0.00;;;8.10;64.70;;;;;;5016509;28;20069;-65
2023/03/28 11:03:36;;;;;;;0.00;0.00;;;8.20;64.30;;;;;;5021770;28;20045;-65
2023/03/28 11:06:12;;;;;;;0.00;0.00;;;8.20;65.50;;;;;;5012077;28;20157;-64
2023/03/28 11:08:50;;;;;;;0.00;0.00;;;8.40;64.10;;;;;;5012660;28;20071;-64
2023/03/28 11:11:51;;;;;;;0.10;0.10;;;8.40;63.80;;;;;;5013111;28;20148;-64
2023/03/28 11:14:27;;;;;;;0.00;0.00;;;8.40;62.70;;;;;;5010150;28;20052;-64
2023/03/28 11:17:13;;;;;;;0.00;0.00;;;8.50;63.50;;;;;;5011465;28;20088;-65
2023/03/28 11:20:16;;;;;;;0.00;0.00;;;8.50;62.00;;;;;;5011322;28;20046;-64
2023/03/28 11:22:45;;;;;;;0.00;0.00;;;8.50;60.80;;;;;;5010872;28;20521;-64
2023/03/28 11:25:40;;;;;;;0.32;0.32;;;8.50;60.60;;;;;;5011173;28;20042;-64
2023/03/28 11:28:53;;;;;;;0.00;0.00;;;8.50;60.80;;;;;;5019950;28;20045;-64
2023/03/28 11:31:29;;;;;;;0.00;0.00;;;8.60;60.20;;;;;;5021150;28;20045;-65
2023/03/28 11:34:10;;;;;;;0.10;0.10;;;8.70;61.70;;;;;;5029741;28;20642;-65
2023/03/28 11:36:49;;;;;;;0.00;0.00;;;8.70;60.20;;;;;;5009965;28;20642;-65
2023/03/28 11:39:30;;;;;;;0.00;0.00;;;8.70;60.40;;;;;;5019619;28;20120;-65
2023/03/28 11:42:01;;;;;;;3.30;0.90;;;8.80;61.10;;;;;;5028563;28;20042;-65
2023/03/28 11:44:34;;;;;;;0.00;0.00;;;8.90;61.20;;;;;;5029797;28;20038;-65
2023/03/28 11:47:04;;;;;;;0.00;0.00;;;8.80;59.50;;;;;;5029549;28;20042;-65
2023/03/28 11:49:38;;;;;;;0.00;0.00;;;8.90;60.30;;;;;;5029253;28;20076;-65
2023/03/28 11:52:25;;;;;;;0.00;0.00;;;8.90;59.10;;;;;;5029342;28;20096;-65
2023/03/28 11:55:10;;;;;;;0.20;0.20;;;9.00;60.30;;;;;;5029143;28;20077;-66
2023/03/28 11:57:58;;;;;;;0.00;0.00;;;9.00;57.50;;;;;;5011087;28;20486;-65
2023/03/28 12:00:35;;;;;;;0.00;0.00;;;8.90;58.20;;;;;;5029022;28;20048;-66
2023/03/28 12:03:41;;;;;;;0.10;0.10;;;8.90;59.20;;;;;;5028681;28;20046;-65
2023/03/28 12:06:13;;;;;;;0.00;0.00;;;8.90;58.80;;;;;;5021183;28;20164;-65
2023/03/28 12:08:48;;;;;;;0.00;0.00;;;8.90;59.20;;;;;;5029247;28;20045;-65
2023/03/28 12:11:24;;;;;;;0.00;0.00;;;9.00;58.70;;;;;;5009622;28;20140;-65
2023/03/28 12:13:57;;;;;;;0.15;0.15;;;9.10;58.30;;;;;;5009444;28;20044;-66
2023/03/28 12:16:30;;;;;;;0.00;0.00;;;9.10;59.00;;;;;;5009421;28;20051;-65
2023/03/28 12:19:00;;;;;;;0.00;0.00;;;9.10;59.20;;;;;;5009523;28;20037;-66
2023/03/28 12:21:40;;;;;;;0.00;0.00;;;9.10;57.40;;;;;;4996385;28;20048;-65
2023/03/28 12:24:12;;;;;;;0.20;0.20;;;9.10;57.50;;;;;;5029165;28;20502;-65
2023/03/28 12:26:50;;;;;;;0.00;0.00;;;9.00;58.30;;;;;;5029232;28;20046;-65
2023/03/28 12:29:19;;;;;;;0.00;0.00;;;9.10;58.10;;;;;;5011438;28;20493;-65
2023/03/28 12:31:59;;;;;;;0.00;0.00;;;9.00;57.80;;;;;;5028980;28;20053;-67
2023/03/28 12:34:42;;;;;;;0.00;0.00;;;9.00;57.20;;;;;;4994978;28;20099;-67
2023/03/28 12:37:23;;;;;;;0.08;0.08;;;9.00;59.10;;;;;;5010928;28;20088;-66
2023/03/28 12:40:07;;;;;;;0.00;0.00;;;9.00;58.60;;;;;;5013234;28;20049;-66
2023/03/28 12:42:35;;;;;;;0.00;0.00;;;9.00;58.10;;;;;;5009042;28;20037;-67
2023/03/28 12:45:04;;;;;;;0.00;0.00;;;9.10;58.60;;;;;;5009283;28;20048;-66
2023/03/28 12:47:41;;;;;;;0.00;0.00;;;9.00;58.20;;;;;;5009193;28;20046;-66
2023/03/28 12:50:30;;;;;;;0.05;0.05;;;9.10;57.90;;;;;;5026300;28;20161;-66
2023/03/28 12:52:57;;;;;;;0.00;0.00;;;9.00;56.90;;;;;;5028588;28;20057;-66
2023/03/28 12:55:23;;;;;;;0.15;0.15;;;9.10;56.60;;;;;;5029062;28;20042;-66
2023/03/28 12:57:49;;;;;;;0.00;0.00;;;9.10;56.80;;;;;;4994774;28;20042;-67
2023/03/28 13:00:46;;;;;;;0.00;0.00;;;9.00;55.20;;;;;;5029534;28;20068;-67
2023/03/28 13:03:45;;;;;;;0.00;0.00;;;9.10;57.30;;;;;;5015915;28;20048;-66
2023/03/28 13:06:32;;;;;;;0.00;0.00;;;9.10;56.90;;;;;;5029032;28;20042;-66
2023/03/28 13:09:18;;;;;;;0.40;0.40;;;9.10;57.60;;;;;;5030708;28;20525;-67
2023/03/28 13:12:02;;;;;;;0.10;0.10;;;9.10;57.60;;;;;;5015587;28;20067;-67
2023/03/28 13:14:35;;;;;;;0.10;0.10;;;9.10;56.90;;;;;;5013532;28;20046;-66
2023/03/28 13:17:02;;;;;;;0.00;0.00;;;9.10;57.90;;;;;;5012797;28;20038;-67
2023/03/28 13:19:51;;;;;;;0.05;0.05;;;9.10;57.10;;;;;;5012410;28;20045;-66
2023/03/28 13:22:32;;;;;;;0.40;0.40;;;9.10;57.60;;;;;;5016906;28;20406;-66
2023/03/28 13:25:32;;;;;;;0.00;0.00;;;9.10;57.50;;;;;;5032121;28;20047;-66